Time;durP1;ratioP1;P1;durP2;ratioP2;P2;SDS_P1;SDS_P2;PMS_P1;PMS_P2;Temp;Humidity;BMP_temperature;BMP_pressure;BME280_temperature;BME280_humidity;BME280_pressure;Samples;Min_cycle;Max_cycle;Signal;HPM_P1;HPM_P2
2022/05/17 00:01:39;;;;;;;13.73;12.33;;;14.10;99.90;;;;;;5078652;28;20587;-62
2022/05/17 00:04:12;;;;;;;21.80;13.83;;;14.00;99.90;;;;;;5079580;28;20466;-62
2022/05/17 00:06:41;;;;;;;15.10;13.80;;;14.00;99.90;;;;;;5079004;28;20461;-62
2022/05/17 00:09:13;;;;;;;15.03;13.73;;;13.80;99.90;;;;;;5079523;28;20488;-62
2022/05/17 00:11:40;;;;;;;46.30;13.50;;;13.90;99.90;;;;;;5079369;28;20514;-62
2022/05/17 00:14:14;;;;;;;94.93;16.40;;;13.80;99.90;;;;;;5079020;28;20491;-62
2022/05/17 00:16:44;;;;;;;21.53;12.53;;;13.70;99.90;;;;;;5078767;28;20489;-62
2022/05/17 00:19:19;;;;;;;28.27;12.47;;;13.70;99.90;;;;;;5078559;28;20462;-62
2022/05/17 00:21:46;;;;;;;12.90;11.70;;;13.60;99.90;;;;;;5078725;28;20517;-62
2022/05/17 00:24:21;;;;;;;66.07;15.07;;;13.70;99.90;;;;;;5079021;28;20586;-62
2022/05/17 00:26:49;;;;;;;31.70;12.43;;;13.60;99.90;;;;;;5078515;28;20804;-62
2022/05/17 00:29:21;;;;;;;40.30;11.97;;;13.60;99.90;;;;;;5079273;28;20522;-62
2022/05/17 00:31:51;;;;;;;92.63;14.07;;;13.60;99.90;;;;;;5078838;28;20511;-62
2022/05/17 00:34:20;;;;;;;58.17;13.00;;;13.60;99.90;;;;;;5078619;28;20765;-61
2022/05/17 00:36:50;;;;;;;114.73;18.57;;;13.60;99.90;;;;;;5078684;28;20758;-62
2022/05/17 00:39:17;;;;;;;81.73;15.40;;;13.50;99.90;;;;;;5078802;28;20473;-62
2022/05/17 00:41:50;;;;;;;123.30;16.80;;;13.60;99.90;;;;;;5078616;28;20524;-62
2022/05/17 00:47:11;;;;;;;16.77;10.97;;;13.50;99.90;;;;;;5078166;28;20498;-62
2022/05/17 00:49:44;;;;;;;16.10;10.67;;;13.40;99.90;;;;;;5078728;28;20470;-62
2022/05/17 00:52:17;;;;;;;17.10;11.87;;;13.40;99.90;;;;;;5078803;28;20493;-62
2022/05/17 00:54:46;;;;;;;14.17;10.47;;;13.40;99.90;;;;;;5078343;28;20493;-62
2022/05/17 00:57:26;;;;;;;32.83;10.50;;;13.40;99.90;;;;;;5078416;28;20457;-62
2022/05/17 01:00:05;;;;;;;23.10;11.23;;;13.40;99.90;;;;;;5078100;28;20465;-62
2022/05/17 01:02:38;;;;;;;23.40;10.40;;;13.40;99.90;;;;;;5077431;28;20492;-62
2022/05/17 01:05:06;;;;;;;28.57;10.87;;;13.30;99.90;;;;;;5078245;28;20458;-62
2022/05/17 01:07:40;;;;;;;40.90;11.40;;;13.30;99.90;;;;;;5078169;28;20510;-62
2022/05/17 01:10:08;;;;;;;33.93;10.70;;;13.30;99.90;;;;;;5078509;28;20516;-62
2022/05/17 01:12:37;;;;;;;41.90;11.57;;;13.40;99.90;;;;;;5077712;28;20877;-62
2022/05/17 01:15:08;;;;;;;37.20;11.30;;;13.40;99.90;;;;;;5078047;28;20468;-62
2022/05/17 01:17:39;;;;;;;70.93;13.03;;;13.40;99.90;;;;;;5078045;28;20463;-62
2022/05/17 01:20:14;;;;;;;26.23;10.30;;;13.40;99.90;;;;;;5077255;28;20491;-62
2022/05/17 01:22:42;;;;;;;25.90;12.00;;;13.50;99.90;;;;;;5077779;28;20488;-62
2022/05/17 01:25:19;;;;;;;21.17;10.90;;;13.50;99.90;;;;;;5078265;28;20487;-62
2022/05/17 01:27:54;;;;;;;22.87;10.73;;;13.40;99.90;;;;;;5078214;28;20512;-62
2022/05/17 01:30:23;;;;;;;13.27;11.50;;;13.40;99.90;;;;;;5078112;28;20461;-62
2022/05/17 01:32:51;;;;;;;41.30;12.40;;;13.40;99.90;;;;;;5077325;28;20499;-62
2022/05/17 01:35:18;;;;;;;72.70;13.57;;;13.50;99.90;;;;;;5077097;28;20544;-62
2022/05/17 01:37:52;;;;;;;103.20;15.13;;;13.40;99.90;;;;;;5077629;28;20457;-62
2022/05/17 01:40:23;;;;;;;32.30;11.10;;;13.30;99.90;;;;;;5077930;28;20499;-62
2022/05/17 01:42:50;;;;;;;30.37;12.47;;;13.20;99.90;;;;;;5077516;28;20715;-62
2022/05/17 01:45:17;;;;;;;61.77;13.53;;;13.20;99.90;;;;;;5077459;28;20949;-62
2022/05/17 01:47:46;;;;;;;57.33;13.07;;;13.20;99.90;;;;;;5076999;28;20479;-62
2022/05/17 01:50:14;;;;;;;63.57;12.43;;;13.00;99.90;;;;;;5077689;28;20784;-62
2022/05/17 01:52:44;;;;;;;45.03;12.10;;;13.00;99.90;;;;;;5077702;28;20487;-61
2022/05/17 01:55:13;;;;;;;38.33;11.97;;;13.00;99.90;;;;;;5077112;28;20569;-62
2022/05/17 01:57:41;;;;;;;33.93;11.47;;;13.00;99.90;;;;;;5077364;28;20986;-62
2022/05/17 02:00:14;;;;;;;43.60;13.30;;;13.00;99.90;;;;;;5076825;28;20461;-62
2022/05/17 02:02:41;;;;;;;124.77;16.17;;;12.90;99.90;;;;;;5076810;28;20929;-62
2022/05/17 02:05:17;;;;;;;10.93;9.57;;;12.90;99.90;;;;;;5077314;28;20488;-62
2022/05/17 02:07:50;;;;;;;19.43;10.70;;;12.90;99.90;;;;;;5077332;28;20563;-62
2022/05/17 02:10:20;;;;;;;14.27;9.87;;;12.90;99.90;;;;;;5077630;28;20534;-62
2022/05/17 02:12:50;;;;;;;29.00;10.23;;;12.90;99.90;;;;;;5076873;28;20889;-62
2022/05/17 02:15:25;;;;;;;28.40;10.80;;;12.80;99.90;;;;;;5076961;28;20764;-62
2022/05/17 02:17:55;;;;;;;35.43;10.60;;;12.80;99.90;;;;;;5077051;28;20464;-62
2022/05/17 02:20:22;;;;;;;16.10;10.97;;;12.70;99.90;;;;;;5076760;28;20800;-62
2022/05/17 02:22:51;;;;;;;40.50;12.13;;;12.70;99.90;;;;;;5077031;28;20435;-62
2022/05/17 02:25:20;;;;;;;24.83;11.40;;;12.70;99.90;;;;;;5076860;28;20574;-62
2022/05/17 02:27:47;;;;;;;56.10;12.83;;;12.70;99.90;;;;;;5077179;28;20461;-62
2022/05/17 02:30:15;;;;;;;62.70;12.50;;;12.70;99.90;;;;;;5077073;28;20957;-62
2022/05/17 02:32:49;;;;;;;24.97;10.60;;;12.70;99.90;;;;;;5077192;28;20507;-62
2022/05/17 02:35:18;;;;;;;17.90;12.50;;;12.70;99.90;;;;;;5076971;28;20901;-62
2022/05/17 02:37:45;;;;;;;44.70;12.77;;;12.70;99.90;;;;;;5077233;28;20510;-62
2022/05/17 02:40:12;;;;;;;22.30;12.27;;;12.70;99.90;;;;;;5077313;28;20740;-62
2022/05/17 02:42:41;;;;;;;54.83;13.10;;;12.70;99.90;;;;;;5076920;28;20547;-62
2022/05/17 02:45:09;;;;;;;55.00;13.37;;;12.70;99.90;;;;;;5076837;28;20526;-62
2022/05/17 02:47:36;;;;;;;35.90;12.20;;;12.60;99.90;;;;;;5076785;28;20515;-62
2022/05/17 02:50:03;;;;;;;29.43;12.10;;;12.50;99.90;;;;;;5076971;28;20710;-62
2022/05/17 02:52:34;;;;;;;15.23;11.13;;;12.40;99.90;;;;;;5077273;28;20465;-62
2022/05/17 02:55:01;;;;;;;23.80;11.80;;;12.30;99.90;;;;;;5076411;28;20909;-62
2022/05/17 02:57:28;;;;;;;46.50;13.63;;;12.30;99.90;;;;;;5075792;28;21026;-62
2022/05/17 02:59:58;;;;;;;17.27;11.07;;;12.30;99.90;;;;;;5076498;28;20882;-62
2022/05/17 03:02:28;;;;;;;11.50;10.60;;;12.30;99.90;;;;;;5076311;28;20925;-62
2022/05/17 03:04:55;;;;;;;30.87;10.93;;;12.30;99.90;;;;;;5076625;28;20461;-62
2022/05/17 03:07:21;;;;;;;49.53;11.57;;;12.30;99.90;;;;;;5078815;28;20469;-62
2022/05/17 03:09:49;;;;;;;36.53;12.43;;;12.20;99.90;;;;;;5080657;28;20456;-62
2022/05/17 03:12:19;;;;;;;28.67;11.00;;;12.10;99.90;;;;;;5079926;28;20476;-62
2022/05/17 03:14:46;;;;;;;15.80;9.83;;;12.00;99.90;;;;;;5080106;28;20947;-62
2022/05/17 03:17:18;;;;;;;11.43;10.20;;;12.00;99.90;;;;;;5080080;28;20511;-62
2022/05/17 03:19:46;;;;;;;12.07;11.07;;;12.00;99.90;;;;;;5079942;28;20577;-62
2022/05/17 03:22:13;;;;;;;20.57;10.77;;;12.00;99.90;;;;;;5080252;28;20547;-62
2022/05/17 03:24:51;;;;;;;19.13;10.63;;;12.10;99.90;;;;;;5079755;28;20553;-62
2022/05/17 03:27:21;;;;;;;24.73;10.40;;;12.10;99.90;;;;;;5080256;28;20465;-62
2022/05/17 03:29:48;;;;;;;24.97;10.10;;;12.00;99.90;;;;;;5080293;28;20461;-62
2022/05/17 03:32:16;;;;;;;32.17;10.07;;;12.00;99.90;;;;;;5092043;28;20468;-62
2022/05/17 03:34:46;;;;;;;13.10;9.90;;;12.00;99.90;;;;;;5099743;28;20460;-62
2022/05/17 03:37:13;;;;;;;27.67;11.27;;;12.00;99.90;;;;;;5099422;28;20464;-62
2022/05/17 03:39:40;;;;;;;87.13;14.00;;;12.00;99.90;;;;;;5099861;28;20504;-62
2022/05/17 03:42:11;;;;;;;47.13;12.23;;;12.00;99.90;;;;;;5100184;28;20491;-62
2022/05/17 03:44:40;;;;;;;11.50;10.20;;;11.80;99.90;;;;;;5099671;28;20465;-62
2022/05/17 03:47:09;;;;;;;10.93;9.93;;;11.80;99.90;;;;;;5099695;28;20528;-62
2022/05/17 03:49:39;;;;;;;17.37;8.97;;;11.80;99.90;;;;;;5100321;28;20467;-62
2022/05/17 03:52:08;;;;;;;34.73;10.50;;;11.80;99.90;;;;;;5100304;28;20462;-62
2022/05/17 03:54:38;;;;;;;50.90;11.37;;;11.80;99.90;;;;;;5100073;28;20467;-62
2022/05/17 03:57:08;;;;;;;35.40;10.63;;;11.80;99.90;;;;;;5099788;28;20884;-62
2022/05/17 03:59:36;;;;;;;36.50;10.77;;;11.90;99.90;;;;;;5098807;28;20912;-62
2022/05/17 04:02:04;;;;;;;17.80;9.03;;;11.80;99.90;;;;;;5099311;28;20791;-62
2022/05/17 04:04:36;;;;;;;27.10;10.30;;;11.80;99.90;;;;;;5100042;28;20460;-62
2022/05/17 04:07:05;;;;;;;17.43;10.10;;;11.90;99.90;;;;;;5099363;28;20460;-63
2022/05/17 04:09:39;;;;;;;23.00;9.57;;;11.90;99.90;;;;;;5099658;28;20467;-63
2022/05/17 04:12:10;;;;;;;34.50;10.50;;;11.90;99.90;;;;;;5097972;28;20460;-63
2022/05/17 04:14:39;;;;;;;12.80;10.00;;;11.90;99.90;;;;;;5078307;28;20500;-63
2022/05/17 04:17:10;;;;;;;36.10;10.57;;;12.00;99.90;;;;;;5079173;28;20826;-63
2022/05/17 04:19:38;;;;;;;32.10;11.07;;;12.00;99.90;;;;;;5079127;28;20492;-63
2022/05/17 04:22:13;;;;;;;41.00;11.87;;;12.10;99.90;;;;;;5078324;28;20523;-63
2022/05/17 04:24:41;;;;;;;48.23;11.20;;;12.10;99.90;;;;;;5078584;28;20460;-63
2022/05/17 04:27:09;;;;;;;25.60;9.87;;;12.20;99.90;;;;;;5078515;28;20469;-63
2022/05/17 04:29:36;;;;;;;39.70;12.10;;;12.20;99.90;;;;;;5079084;28;20564;-63
2022/05/17 04:32:03;;;;;;;21.17;10.20;;;12.10;99.90;;;;;;5078720;28;20497;-63
2022/05/17 04:34:31;;;;;;;30.37;10.80;;;12.20;99.90;;;;;;5079274;28;20799;-63
2022/05/17 04:37:02;;;;;;;16.80;10.47;;;12.30;99.90;;;;;;5078554;28;20461;-63
2022/05/17 04:39:31;;;;;;;10.87;9.87;;;12.30;99.90;;;;;;5078592;28;20461;-63
2022/05/17 04:41:58;;;;;;;10.63;9.53;;;12.40;99.90;;;;;;5078752;28;20933;-63
2022/05/17 04:44:26;;;;;;;13.93;10.83;;;12.40;99.90;;;;;;5077312;28;20466;-63
2022/05/17 04:46:57;;;;;;;34.53;10.77;;;12.50;99.90;;;;;;5077514;28;20461;-63
2022/05/17 04:49:24;;;;;;;17.63;10.13;;;12.60;99.90;;;;;;5077245;28;20461;-63
2022/05/17 04:51:57;;;;;;;15.27;11.43;;;12.60;99.90;;;;;;5076906;28;20519;-63
2022/05/17 04:54:27;;;;;;;15.20;10.17;;;12.70;99.90;;;;;;5076966;28;20454;-63
2022/05/17 04:56:56;;;;;;;26.93;11.27;;;12.70;99.90;;;;;;5076870;28;20926;-63
2022/05/17 04:59:27;;;;;;;16.93;10.30;;;12.80;99.90;;;;;;5077644;28;20465;-63
2022/05/17 05:02:03;;;;;;;13.43;10.60;;;12.90;99.90;;;;;;5072155;28;20490;-63
2022/05/17 05:04:35;;;;;;;13.63;11.27;;;13.00;99.90;;;;;;5056287;28;20967;-63
2022/05/17 05:07:04;;;;;;;23.27;13.40;;;13.10;99.90;;;;;;5057468;28;20469;-63
2022/05/17 05:09:31;;;;;;;15.93;12.50;;;13.20;99.90;;;;;;5057486;28;20903;-63
2022/05/17 05:12:03;;;;;;;14.00;12.60;;;13.30;99.90;;;;;;5056688;28;20458;-63
2022/05/17 05:14:32;;;;;;;12.90;11.70;;;13.50;99.90;;;;;;5057442;28;20470;-63
2022/05/17 05:16:59;;;;;;;14.63;13.17;;;13.70;99.90;;;;;;5057444;28;20462;-63
2022/05/17 05:19:26;;;;;;;20.50;13.13;;;13.80;99.90;;;;;;5057658;28;20467;-63
2022/05/17 05:21:57;;;;;;;12.93;11.73;;;13.80;99.90;;;;;;5057227;28;20580;-63
2022/05/17 05:24:32;;;;;;;11.73;10.63;;;13.80;99.90;;;;;;5057300;28;20519;-63
2022/05/17 05:27:06;;;;;;;12.27;11.20;;;13.80;99.90;;;;;;5071768;28;20881;-63
2022/05/17 05:29:37;;;;;;;13.70;12.43;;;13.90;99.90;;;;;;5076934;28;20792;-63
2022/05/17 05:32:08;;;;;;;12.63;11.50;;;13.90;99.90;;;;;;5077270;28;20462;-62
2022/05/17 05:34:37;;;;;;;12.80;11.53;;;14.00;99.90;;;;;;5076710;28;20497;-62
2022/05/17 05:37:05;;;;;;;11.20;10.23;;;14.00;99.90;;;;;;5072283;28;20473;-62
2022/05/17 05:39:32;;;;;;;12.73;11.53;;;14.00;99.90;;;;;;5071741;28;20477;-61
2022/05/17 05:42:01;;;;;;;12.93;11.77;;;14.10;99.90;;;;;;5075673;28;20484;-62
2022/05/17 05:44:28;;;;;;;14.03;12.73;;;14.20;99.90;;;;;;5073965;28;20826;-62
2022/05/17 05:46:55;;;;;;;14.00;12.57;;;14.20;99.90;;;;;;5072634;28;20473;-62
2022/05/17 05:49:22;;;;;;;12.63;11.53;;;14.20;99.90;;;;;;5076287;28;20465;-62
2022/05/17 05:51:52;;;;;;;15.00;13.70;;;14.50;99.90;;;;;;5076075;28;20472;-62
2022/05/17 05:54:24;;;;;;;14.63;13.33;;;14.50;99.90;;;;;;5074749;28;20461;-62
2022/05/17 05:56:51;;;;;;;16.33;14.70;;;14.60;99.90;;;;;;5075048;28;20468;-62
2022/05/17 05:59:20;;;;;;;16.63;14.93;;;14.70;99.90;;;;;;5075769;28;20812;-62
2022/05/17 06:01:47;;;;;;;16.10;14.40;;;14.90;99.90;;;;;;5072951;28;20542;-63
2022/05/17 06:04:17;;;;;;;14.23;12.93;;;15.10;99.90;;;;;;5067195;28;20465;-63
2022/05/17 06:06:49;;;;;;;14.73;13.33;;;15.20;99.90;;;;;;5075736;28;20484;-63
2022/05/17 06:09:16;;;;;;;15.40;13.80;;;15.40;99.90;;;;;;5076588;28;20759;-63
2022/05/17 06:11:45;;;;;;;11.73;10.60;;;15.60;99.90;;;;;;5076428;28;20461;-62
2022/05/17 06:14:20;;;;;;;12.70;11.03;;;15.60;99.90;;;;;;5076495;28;20469;-62
2022/05/17 06:16:51;;;;;;;12.67;10.43;;;15.80;99.90;;;;;;5075203;28;20468;-63
2022/05/17 06:19:18;;;;;;;11.80;10.03;;;15.70;99.90;;;;;;5075082;28;20461;-63
2022/05/17 06:21:48;;;;;;;11.40;10.23;;;15.90;99.90;;;;;;5076057;28;20476;-63
2022/05/17 06:24:17;;;;;;;11.10;10.10;;;16.00;99.90;;;;;;5076588;28;20886;-63
2022/05/17 06:26:46;;;;;;;12.73;10.97;;;16.10;99.90;;;;;;5076059;28;20465;-63
2022/05/17 06:29:15;;;;;;;12.77;10.97;;;16.10;99.90;;;;;;5076542;28;20550;-63
2022/05/17 06:31:42;;;;;;;11.83;10.80;;;16.20;99.90;;;;;;5075625;28;20908;-63
2022/05/17 06:34:13;;;;;;;13.27;11.83;;;16.10;99.90;;;;;;5076181;28;20503;-63
2022/05/17 06:36:40;;;;;;;12.13;11.13;;;16.20;99.90;;;;;;5076112;28;20894;-63
2022/05/17 06:39:10;;;;;;;11.77;10.67;;;16.20;99.90;;;;;;5074639;28;20552;-63
2022/05/17 06:41:40;;;;;;;12.23;11.07;;;16.20;99.90;;;;;;5075413;28;20460;-62
2022/05/17 06:44:07;;;;;;;13.73;12.53;;;16.20;99.90;;;;;;5078732;28;20509;-62
2022/05/17 06:46:34;;;;;;;13.53;12.23;;;16.20;99.90;;;;;;5079349;28;20510;-62
2022/05/17 06:49:04;;;;;;;13.07;11.77;;;16.20;99.90;;;;;;5079323;28;20523;-62
2022/05/17 06:51:42;;;;;;;13.37;12.07;;;16.30;99.90;;;;;;5079926;28;20436;-62
2022/05/17 06:54:09;;;;;;;12.47;11.27;;;16.50;99.90;;;;;;5079912;28;20560;-63
2022/05/17 06:56:39;;;;;;;15.40;12.80;;;16.70;99.90;;;;;;5080021;28;20468;-62
2022/05/17 06:59:09;;;;;;;13.73;12.50;;;16.90;99.90;;;;;;5079554;28;20511;-62
2022/05/17 07:01:39;;;;;;;13.93;12.50;;;17.10;99.90;;;;;;5078696;28;20560;-63
2022/05/17 07:04:06;;;;;;;13.50;11.97;;;17.20;99.90;;;;;;5078526;28;20848;-63
2022/05/17 07:06:39;;;;;;;14.30;12.90;;;17.40;99.90;;;;;;5078632;28;20465;-62
2022/05/17 07:09:06;;;;;;;14.37;13.10;;;17.50;99.90;;;;;;5079276;28;20582;-62
2022/05/17 07:14:32;;;;;;;13.83;12.53;;;17.80;99.90;;;;;;5078344;28;20507;-62
2022/05/17 07:17:01;;;;;;;14.47;12.97;;;18.00;99.90;;;;;;5077979;28;20507;-62
2022/05/17 07:19:31;;;;;;;13.30;12.03;;;18.10;99.90;;;;;;5076505;28;20498;-62
2022/05/17 07:22:07;;;;;;;15.40;13.70;;;18.30;99.90;;;;;;5078929;28;20457;-62
2022/05/17 07:24:45;;;;;;;13.80;12.50;;;18.40;99.90;;;;;;5077830;28;20731;-62
2022/05/17 07:27:16;;;;;;;14.00;12.80;;;18.80;99.90;;;;;;5077456;28;20492;-62
2022/05/17 07:29:43;;;;;;;13.90;12.40;;;19.40;99.90;;;;;;5077802;28;20489;-62
2022/05/17 07:32:14;;;;;;;14.77;13.37;;;19.80;99.90;;;;;;5078478;28;20457;-62
2022/05/17 07:34:41;;;;;;;13.13;11.73;;;20.40;99.90;;;;;;5078417;28;20472;-63
2022/05/17 07:37:11;;;;;;;15.07;13.67;;;20.60;1.00;;;;;;5076407;28;20461;-63
2022/05/17 07:39:41;;;;;;;15.60;13.80;;;20.80;1.00;;;;;;5078745;28;20873;-63
2022/05/17 07:42:13;;;;;;;15.90;14.47;;;21.10;99.90;;;;;;5076483;28;20465;-63
2022/05/17 07:44:40;;;;;;;18.73;15.03;;;21.60;99.90;;;;;;5078464;28;20505;-63
2022/05/17 07:47:12;;;;;;;17.67;14.57;;;21.80;97.70;;;;;;5075970;28;20507;-63
2022/05/17 07:49:42;;;;;;;15.30;13.10;;;22.00;99.90;;;;;;5077285;28;20457;-63
2022/05/17 07:52:18;;;;;;;15.87;12.10;;;22.00;1.00;;;;;;5074843;28;20544;-65
2022/05/17 07:54:45;;;;;;;14.87;13.47;;;22.00;1.00;;;;;;5079223;28;20484;-65
2022/05/17 07:57:12;;;;;;;15.03;13.60;;;22.00;1.00;;;;;;5079056;28;20554;-65
2022/05/17 07:59:43;;;;;;;13.27;12.03;;;22.10;1.00;;;;;;5079000;28;20519;-64
2022/05/17 08:02:11;;;;;;;13.67;12.27;;;22.10;1.00;;;;;;5078353;28;20511;-64
2022/05/17 08:04:38;;;;;;;12.93;11.70;;;22.30;1.00;;;;;;5078279;28;20440;-64
2022/05/17 08:07:07;;;;;;;13.47;12.03;;;22.40;1.00;;;;;;5079265;28;20552;-64
2022/05/17 08:09:36;;;;;;;15.60;11.10;;;22.40;1.00;;;;;;5078694;28;20552;-64
2022/05/17 08:12:04;;;;;;;18.13;12.53;;;22.50;1.00;;;;;;5078443;28;20552;-64
2022/05/17 08:14:38;;;;;;;18.13;11.73;;;22.50;1.00;;;;;;5079006;28;20755;-65
2022/05/17 08:17:09;;;;;;;13.47;12.03;;;22.50;1.00;;;;;;5079399;28;20518;-65
2022/05/17 08:19:41;;;;;;;13.90;12.40;;;22.40;1.00;;;;;;5078544;28;20582;-64
2022/05/17 08:22:12;;;;;;;13.53;12.33;;;22.40;1.00;;;;;;5078698;28;20530;-64
2022/05/17 08:27:36;;;;;;;14.20;12.73;;;22.20;1.00;;;;;;5073666;28;20465;-65
2022/05/17 08:30:10;;;;;;;12.20;11.10;;;22.20;1.00;;;;;;5076912;28;20495;-65
2022/05/17 08:35:23;;;;;;;13.80;10.27;;;21.90;1.00;;;;;;5077989;28;20781;-64
2022/05/17 08:37:51;;;;;;;10.37;9.27;;;22.00;1.00;;;;;;5078205;28;20460;-63
2022/05/17 08:40:41;;;;;;;10.13;8.90;;;21.90;1.00;;;;;;5078397;28;20866;-65
2022/05/17 08:43:18;;;;;;;12.90;8.40;;;21.70;1.00;;;;;;5078673;28;20489;-64
2022/05/17 08:46:07;;;;;;;8.60;7.70;;;21.70;1.00;;;;;;5076918;28;20469;-64
2022/05/17 08:48:46;;;;;;;11.30;8.37;;;21.80;1.00;;;;;;5078095;28;20456;-64
2022/05/17 08:51:19;;;;;;;10.80;8.07;;;21.90;1.00;;;;;;5078249;28;20894;-64
2022/05/17 08:53:56;;;;;;;12.97;8.40;;;21.50;1.00;;;;;;5078082;28;20454;-64
2022/05/17 08:56:35;;;;;;;11.10;9.40;;;21.60;1.00;;;;;;5077908;28;20496;-64
2022/05/17 08:59:04;;;;;;;9.40;7.60;;;21.50;1.00;;;;;;5078385;28;20462;-64
2022/05/17 09:01:39;;;;;;;10.60;7.47;;;21.40;1.00;;;;;;5076624;28;20540;-64
2022/05/17 09:04:31;;;;;;;8.67;6.50;;;21.70;1.00;;;;;;5077139;28;20866;-64
2022/05/17 09:07:10;;;;;;;10.63;6.80;;;21.80;1.00;;;;;;5078131;28;20457;-64
2022/05/17 09:09:51;;;;;;;12.70;6.43;;;22.10;1.00;;;;;;5077415;28;20487;-64
2022/05/17 09:12:30;;;;;;;6.73;4.80;;;22.00;1.00;;;;;;5077627;28;20830;-64
2022/05/17 09:15:02;;;;;;;9.17;5.40;;;22.30;1.00;;;;;;5077909;28;20457;-64
2022/05/17 09:17:29;;;;;;;11.30;5.63;;;22.60;1.00;;;;;;5077480;28;20455;-64
2022/05/17 09:20:02;;;;;;;8.50;5.10;;;22.60;99.90;;;;;;5076909;28;20513;-64
2022/05/17 09:22:29;;;;;;;6.67;5.40;;;22.50;99.90;;;;;;5077559;28;20457;-64
2022/05/17 09:25:01;;;;;;;8.70;5.87;;;22.50;1.00;;;;;;5077677;28;20597;-64
2022/05/17 09:27:35;;;;;;;7.60;5.20;;;22.60;1.00;;;;;;5077970;28;20558;-65
2022/05/17 09:30:10;;;;;;;6.90;4.67;;;22.40;99.90;;;;;;5077148;28;20518;-64
2022/05/17 09:32:43;;;;;;;7.10;4.40;;;22.50;99.90;;;;;;5077653;28;20499;-64
2022/05/17 09:35:18;;;;;;;5.37;3.50;;;22.30;99.90;;;;;;5077099;28;20469;-64
2022/05/17 09:37:47;;;;;;;6.57;5.00;;;22.10;99.90;;;;;;5077512;28;20493;-64
2022/05/17 09:40:23;;;;;;;6.90;4.33;;;21.90;99.90;;;;;;5076936;28;20499;-64
2022/05/17 09:43:04;;;;;;;10.00;5.47;;;22.00;99.90;;;;;;5077526;28;20467;-64
2022/05/17 09:45:49;;;;;;;6.70;4.80;;;22.30;99.90;;;;;;5076894;28;20432;-64
2022/05/17 09:48:33;;;;;;;7.13;5.07;;;22.30;99.90;;;;;;5077061;28;20547;-64
2022/05/17 09:53:59;;;;;;;6.20;4.87;;;22.30;99.90;;;;;;5076493;28;20436;-64
2022/05/17 09:56:28;;;;;;;8.80;5.17;;;21.90;99.90;;;;;;5076517;28;20504;-64
2022/05/17 09:59:03;;;;;;;10.80;5.10;;;22.00;99.90;;;;;;5075491;28;20557;-64
2022/05/17 10:01:43;;;;;;;11.03;5.00;;;22.30;99.90;;;;;;5074813;28;20540;-64
2022/05/17 10:04:13;;;;;;;7.20;5.30;;;22.40;99.90;;;;;;5076948;28;20554;-64
2022/05/17 10:06:44;;;;;;;6.60;5.13;;;22.70;99.90;;;;;;5076234;28;20466;-64
2022/05/17 10:09:26;;;;;;;7.20;5.60;;;22.50;99.90;;;;;;5077030;28;20545;-64
2022/05/17 10:12:05;;;;;;;11.10;5.40;;;22.60;99.90;;;;;;5076193;28;20463;-64
2022/05/17 10:14:44;;;;;;;6.80;4.30;;;23.10;99.90;;;;;;5076973;28;20464;-64
2022/05/17 10:17:20;;;;;;;9.53;5.10;;;23.50;99.90;;;;;;5076203;28;20812;-64
2022/05/17 10:19:51;;;;;;;5.10;4.10;;;24.50;99.90;;;;;;5075384;28;20588;-64
2022/05/17 10:22:26;;;;;;;5.30;4.43;;;24.90;99.90;;;;;;5076930;28;20472;-64
2022/05/17 10:24:58;;;;;;;6.40;4.30;;;25.00;99.90;;;;;;5073605;28;20488;-64
2022/05/17 10:27:46;;;;;;;9.17;5.30;;;25.00;99.90;;;;;;5077106;28;20575;-64
2022/05/17 10:30:22;;;;;;;8.63;4.93;;;24.90;99.90;;;;;;5076175;28;20560;-65
2022/05/17 10:32:59;;;;;;;9.03;5.83;;;24.70;99.90;;;;;;5077100;28;20912;-62
2022/05/17 10:35:36;;;;;;;7.33;4.90;;;24.50;99.90;;;;;;5076377;28;20461;-62
2022/05/17 10:38:12;;;;;;;6.20;4.23;;;24.50;99.90;;;;;;5075718;28;20548;-62
2022/05/17 10:40:45;;;;;;;7.70;4.90;;;24.30;99.90;;;;;;5076743;28;20818;-61
2022/05/17 10:43:24;;;;;;;7.40;4.70;;;24.20;99.90;;;;;;5076403;28;20453;-62
2022/05/17 10:46:00;;;;;;;4.80;4.00;;;24.10;99.90;;;;;;5061733;28;20494;-62
2022/05/17 10:48:49;;;;;;;5.23;4.73;;;23.80;99.90;;;;;;5075981;28;20494;-62
2022/05/17 10:51:22;;;;;;;6.00;4.90;;;23.20;99.90;;;;;;5076335;28;20461;-62
2022/05/17 10:54:07;;;;;;;9.23;4.60;;;22.90;99.90;;;;;;5075659;28;20481;-62
2022/05/17 10:56:47;;;;;;;6.20;4.60;;;23.00;99.90;;;;;;5075791;28;20464;-61
2022/05/17 10:59:35;;;;;;;5.80;4.30;;;23.30;99.90;;;;;;5075338;28;20891;-61
2022/05/17 11:02:18;;;;;;;5.53;3.87;;;23.50;99.90;;;;;;5074000;28;20886;-61
2022/05/17 11:05:05;;;;;;;4.60;3.47;;;23.70;99.90;;;;;;5076039;28;20591;-61
2022/05/17 11:07:43;;;;;;;5.83;3.73;;;24.00;99.90;;;;;;5076135;28;20548;-61
2022/05/17 11:10:19;;;;;;;6.53;4.40;;;24.40;99.90;;;;;;5075658;28;20453;-62
2022/05/17 11:12:53;;;;;;;5.53;3.83;;;24.80;99.90;;;;;;5074970;28;20824;-61
2022/05/17 11:15:35;;;;;;;7.77;4.87;;;25.10;99.90;;;;;;5075971;28;20511;-61
2022/05/17 11:18:14;;;;;;;5.67;4.43;;;25.50;99.90;;;;;;5075875;28;20514;-60
2022/05/17 11:20:52;;;;;;;7.00;4.60;;;25.50;99.90;;;;;;5075424;28;20491;-61
2022/05/17 11:23:51;;;;;;;7.07;4.60;;;25.30;99.90;;;;;;5075550;28;20548;-62
2022/05/17 11:26:58;;;;;;;10.23;5.13;;;25.30;99.90;;;;;;5073807;28;20852;-62
2022/05/17 11:29:57;;;;;;;9.90;4.93;;;24.90;99.90;;;;;;5079490;28;20491;-62
2022/05/17 11:32:28;;;;;;;7.57;4.40;;;24.90;99.90;;;;;;5079669;28;20460;-62
2022/05/17 11:34:59;;;;;;;5.87;4.53;;;24.70;99.90;;;;;;5079967;28;20492;-61
2022/05/17 11:37:54;;;;;;;5.07;3.73;;;24.50;99.90;;;;;;5078948;28;20552;-61
2022/05/17 11:40:56;;;;;;;7.77;4.47;;;24.60;99.90;;;;;;5077309;28;20902;-61
2022/05/17 11:43:50;;;;;;;6.77;3.80;;;24.70;99.90;;;;;;5063822;28;20468;-61
2022/05/17 11:46:55;;;;;;;5.43;3.20;;;24.60;99.90;;;;;;5060902;28;20539;-61
2022/05/17 11:49:45;;;;;;;7.23;4.17;;;24.50;99.90;;;;;;5079514;28;20757;-61
2022/05/17 11:52:32;;;;;;;5.03;3.77;;;24.60;99.90;;;;;;5068054;28;20474;-61
2022/05/17 11:55:05;;;;;;;4.47;3.90;;;24.60;99.90;;;;;;5074553;28;20551;-61
2022/05/17 11:58:08;;;;;;;7.17;4.07;;;24.70;99.90;;;;;;5078916;28;20485;-61
2022/05/17 12:00:45;;;;;;;5.83;3.63;;;25.10;99.90;;;;;;5079417;28;20465;-61
2022/05/17 12:03:50;;;;;;;7.10;4.10;;;25.30;99.90;;;;;;5079170;28;20767;-61
2022/05/17 12:06:43;;;;;;;5.60;3.83;;;25.00;99.90;;;;;;5079125;28;20461;-60
2022/05/17 12:09:30;;;;;;;5.70;4.10;;;25.00;99.90;;;;;;5079389;28;20469;-60
2022/05/17 12:12:16;;;;;;;7.20;4.33;;;25.00;99.90;;;;;;5077477;28;20461;-61
2022/05/17 12:14:50;;;;;;;4.63;3.83;;;24.90;99.90;;;;;;5077289;28;20515;-60
2022/05/17 12:17:25;;;;;;;7.00;4.23;;;24.80;99.90;;;;;;5077178;28;20741;-60
2022/05/17 12:20:03;;;;;;;6.57;4.33;;;24.80;99.90;;;;;;5075922;28;20584;-60
2022/05/17 12:22:37;;;;;;;4.27;3.80;;;24.40;99.90;;;;;;5075044;28;20873;-60
2022/05/17 12:25:15;;;;;;;5.93;4.57;;;24.30;99.90;;;;;;5075887;28;20567;-60
2022/05/17 12:27:50;;;;;;;5.23;3.77;;;23.90;99.90;;;;;;5076321;28;20878;-60
2022/05/17 12:33:11;;;;;;;9.77;4.53;;;23.70;99.90;;;;;;5074515;28;20432;-60
2022/05/17 12:35:41;;;;;;;7.47;4.87;;;23.60;99.90;;;;;;5076558;28;20807;-60
2022/05/17 12:43:38;;;;;;;7.27;4.50;;;23.50;99.90;;;;;;5075372;28;20464;-60
2022/05/17 12:46:14;;;;;;;6.93;5.10;;;23.60;99.90;;;;;;5076616;28;20466;-60
2022/05/17 12:48:46;;;;;;;6.20;4.57;;;23.50;99.90;;;;;;5076784;28;20467;-61
2022/05/17 12:51:13;;;;;;;6.83;4.50;;;23.60;99.90;;;;;;5076779;28;20555;-61
2022/05/17 12:53:43;;;;;;;8.27;4.53;;;23.60;99.90;;;;;;5076748;28;20496;-60
2022/05/17 12:56:28;;;;;;;7.57;4.43;;;23.60;99.90;;;;;;5077757;28;20461;-60
2022/05/17 12:58:58;;;;;;;8.80;4.70;;;23.70;99.90;;;;;;5078649;28;20829;-60
2022/05/17 13:01:34;;;;;;;6.00;4.57;;;23.40;99.90;;;;;;5075658;28;20767;-61
2022/05/17 13:04:10;;;;;;;5.10;4.00;;;23.50;99.90;;;;;;5076198;28;20543;-61
2022/05/17 13:06:39;;;;;;;4.87;4.10;;;23.60;99.90;;;;;;5078302;28;20460;-61
2022/05/17 13:09:14;;;;;;;5.90;4.43;;;23.70;99.90;;;;;;5077514;28;20497;-60
2022/05/17 13:11:46;;;;;;;7.53;4.30;;;23.80;99.90;;;;;;5077970;28;20461;-60
2022/05/17 13:14:24;;;;;;;7.40;4.70;;;23.90;99.90;;;;;;5076837;28;20532;-61
2022/05/17 13:17:06;;;;;;;5.17;4.30;;;24.00;99.90;;;;;;5077169;28;20481;-60
2022/05/17 13:19:40;;;;;;;6.53;4.77;;;23.90;99.90;;;;;;5074128;28;20477;-60
2022/05/17 13:22:08;;;;;;;7.17;4.67;;;23.90;99.90;;;;;;5076911;28;20457;-61
2022/05/17 13:24:44;;;;;;;6.50;4.83;;;23.90;99.90;;;;;;5077638;28;20511;-60
2022/05/17 13:27:25;;;;;;;5.93;4.37;;;23.80;99.90;;;;;;5077653;28;20973;-61